Time;durP1;ratioP1;P1;durP2;ratioP2;P2;SDS_P1;SDS_P2;PMS_P1;PMS_P2;Temp;Humidity;BMP_temperature;BMP_pressure;BME280_temperature;BME280_humidity;BME280_pressure;Samples;Min_cycle;Max_cycle;Signal;HPM_P1;HPM_P2
2024/01/05 04:02:28;;;;;;;24.77;10.50;;;4.20;99.90;;;;;;5013247;23;20427;-74
2024/01/05 04:04:54;;;;;;;26.30;10.98;;;4.20;99.90;;;;;;4934992;29;20050;-73
2024/01/05 04:07:19;;;;;;;27.77;11.30;;;4.20;99.90;;;;;;4934893;29;20058;-74
2024/01/05 04:09:45;;;;;;;29.85;11.75;;;4.20;99.90;;;;;;4919199;29;20039;-76
2024/01/05 04:12:11;;;;;;;28.75;11.38;;;4.20;99.90;;;;;;4934590;29;20052;-73
2024/01/05 04:14:37;;;;;;;26.83;10.90;;;4.20;99.90;;;;;;4934628;29;20039;-73
2024/01/05 04:17:02;;;;;;;34.95;12.40;;;4.20;99.90;;;;;;4936303;29;20036;-74
2024/01/05 04:19:29;;;;;;;24.30;10.95;;;4.20;99.90;;;;;;4936324;29;20035;-75
2024/01/05 04:21:55;;;;;;;32.33;12.90;;;4.20;99.90;;;;;;4934697;29;20043;-74
2024/01/05 04:24:21;;;;;;;29.38;12.15;;;4.20;99.90;;;;;;4936287;29;20042;-74
2024/01/05 04:26:48;;;;;;;31.77;12.75;;;4.20;99.90;;;;;;4936585;29;20356;-75
2024/01/05 04:29:14;;;;;;;33.70;12.85;;;4.20;99.90;;;;;;4935009;29;20048;-74
2024/01/05 04:31:39;;;;;;;31.55;12.82;;;4.20;99.90;;;;;;4934957;29;20484;-74
2024/01/05 04:34:05;;;;;;;40.47;13.18;;;4.30;99.90;;;;;;4935800;29;20054;-74
2024/01/05 04:36:30;;;;;;;32.20;12.68;;;4.20;99.90;;;;;;4918895;29;20142;-74
2024/01/05 04:38:56;;;;;;;35.35;13.07;;;4.30;99.90;;;;;;4936235;29;20127;-76
2024/01/05 04:41:22;;;;;;;32.47;13.52;;;4.30;99.90;;;;;;4934658;29;20152;-75
2024/01/05 04:43:49;;;;;;;35.15;13.95;;;4.30;99.90;;;;;;4936196;29;20039;-74
2024/01/05 04:46:16;;;;;;;37.83;14.10;;;4.20;99.90;;;;;;4935786;29;20044;-75
2024/01/05 04:48:41;;;;;;;38.78;13.55;;;4.30;99.90;;;;;;4935825;29;20040;-73
2024/01/05 04:51:07;;;;;;;34.95;13.65;;;4.30;99.90;;;;;;4935896;29;20036;-75
2024/01/05 04:53:33;;;;;;;37.63;13.85;;;4.30;99.90;;;;;;4934651;29;20404;-73
2024/01/05 04:55:58;;;;;;;37.33;13.25;;;4.30;99.90;;;;;;4934442;29;20100;-75
2024/01/05 04:58:24;;;;;;;35.05;13.40;;;4.30;99.90;;;;;;4934480;29;20044;-76
2024/01/05 05:00:50;;;;;;;37.05;14.60;;;4.30;99.90;;;;;;4934278;29;20106;-73
2024/01/05 05:03:15;;;;;;;38.50;14.52;;;4.40;99.90;;;;;;4935944;29;20044;-74
2024/01/05 05:05:41;;;;;;;37.53;15.27;;;4.40;99.90;;;;;;4934597;29;20043;-75
2024/01/05 05:08:10;;;;;;;42.33;14.55;;;4.40;99.90;;;;;;4934351;29;20043;-75
2024/01/05 05:10:37;;;;;;;38.65;14.70;;;4.40;99.90;;;;;;4934285;29;20054;-74
2024/01/05 05:13:03;;;;;;;39.60;15.70;;;4.40;99.90;;;;;;4934614;29;20409;-76
2024/01/05 05:15:29;;;;;;;42.40;15.82;;;4.40;99.90;;;;;;4934610;29;20042;-75
2024/01/05 05:17:54;;;;;;;38.25;14.73;;;4.40;99.90;;;;;;4934302;29;20054;-76
2024/01/05 05:20:20;;;;;;;37.10;14.60;;;4.40;99.90;;;;;;4935684;29;20053;-75
2024/01/05 05:22:46;;;;;;;40.80;15.75;;;4.40;99.90;;;;;;4935889;29;20498;-75
2024/01/05 05:25:11;;;;;;;41.95;15.18;;;4.40;99.90;;;;;;4919713;29;20103;-74
2024/01/05 05:27:37;;;;;;;45.58;17.50;;;4.40;99.90;;;;;;4937859;29;20472;-74
2024/01/05 05:30:05;;;;;;;49.92;16.33;;;4.40;99.90;;;;;;4939276;29;20115;-74
2024/01/05 05:32:30;;;;;;;39.85;16.35;;;4.50;99.90;;;;;;4938794;29;20468;-73
2024/01/05 05:34:56;;;;;;;39.63;15.52;;;4.50;99.90;;;;;;4938667;29;20050;-74
2024/01/05 05:37:22;;;;;;;41.58;16.77;;;4.50;99.90;;;;;;4939057;29;20119;-74
2024/01/05 05:39:47;;;;;;;47.28;14.93;;;4.50;99.90;;;;;;4939102;29;20079;-75
2024/01/05 05:42:13;;;;;;;41.88;16.40;;;4.50;99.90;;;;;;4938762;29;20134;-75
2024/01/05 05:44:39;;;;;;;46.50;17.00;;;4.50;99.90;;;;;;4938803;29;20563;-74
2024/01/05 05:47:04;;;;;;;45.70;16.85;;;4.50;99.90;;;;;;4938832;29;20083;-74
2024/01/05 05:49:30;;;;;;;44.95;16.77;;;4.60;99.90;;;;;;4937317;29;20047;-74
2024/01/05 05:51:55;;;;;;;43.90;16.25;;;4.50;99.90;;;;;;4938731;29;20040;-74
2024/01/05 05:54:21;;;;;;;46.50;17.67;;;4.50;99.90;;;;;;4921413;29;20126;-76
2024/01/05 05:56:48;;;;;;;41.00;16.27;;;4.50;99.90;;;;;;4937143;29;20099;-74
2024/01/05 05:59:13;;;;;;;47.20;16.83;;;4.50;99.90;;;;;;4937342;29;20036;-76
2024/01/05 06:01:39;;;;;;;51.65;17.92;;;4.60;99.90;;;;;;4937411;29;20040;-74
2024/01/05 06:04:07;;;;;;;44.45;16.13;;;4.60;99.90;;;;;;4938270;29;20529;-75
2024/01/05 06:06:33;;;;;;;51.13;17.40;;;4.60;99.90;;;;;;4936975;29;20051;-73
2024/01/05 06:08:59;;;;;;;50.20;18.08;;;4.60;99.90;;;;;;4938211;29;20404;-75
2024/01/05 06:11:28;;;;;;;45.33;17.25;;;4.60;99.90;;;;;;4938120;29;20044;-75
2024/01/05 06:13:54;;;;;;;52.33;16.85;;;4.60;99.90;;;;;;4936718;29;20079;-73
2024/01/05 06:16:20;;;;;;;48.92;17.23;;;4.60;99.90;;;;;;4936758;29;20048;-75
2024/01/05 06:18:46;;;;;;;44.50;17.23;;;4.60;99.90;;;;;;4936673;29;20095;-74
2024/01/05 06:21:11;;;;;;;53.20;18.58;;;4.60;99.90;;;;;;4936655;29;20400;-73
2024/01/05 06:23:37;;;;;;;46.50;17.85;;;4.60;99.90;;;;;;4938103;29;20082;-74
2024/01/05 06:26:03;;;;;;;44.25;17.23;;;4.60;99.90;;;;;;4938187;29;20086;-74
2024/01/05 06:28:29;;;;;;;52.30;17.75;;;4.70;99.90;;;;;;4937715;29;20542;-73
2024/01/05 06:30:54;;;;;;;49.55;18.55;;;4.70;99.90;;;;;;4936443;29;20051;-74
2024/01/05 06:33:20;;;;;;;49.25;18.00;;;4.70;99.90;;;;;;4938389;29;20130;-73
2024/01/05 06:35:45;;;;;;;44.35;17.77;;;4.70;99.90;;;;;;4956448;28;20077;-75
2024/01/05 06:38:11;;;;;;;49.70;18.27;;;4.70;99.90;;;;;;4955486;29;20125;-74
2024/01/05 06:40:37;;;;;;;48.50;19.02;;;4.80;99.90;;;;;;4956898;28;20500;-74
2024/01/05 06:43:03;;;;;;;53.85;20.27;;;4.80;99.90;;;;;;4955732;29;20062;-75
2024/01/05 06:45:28;;;;;;;49.40;17.52;;;4.80;99.90;;;;;;4955455;29;20078;-74
2024/01/05 06:47:54;;;;;;;55.30;18.83;;;4.80;99.90;;;;;;4956591;29;20398;-74
2024/01/05 06:50:19;;;;;;;53.83;18.30;;;4.80;99.90;;;;;;4955268;29;20035;-74
2024/01/05 06:52:45;;;;;;;53.35;19.33;;;4.90;99.90;;;;;;4956625;29;20074;-74
2024/01/05 06:55:11;;;;;;;50.00;18.75;;;4.90;99.90;;;;;;4955190;29;20058;-75
2024/01/05 06:57:37;;;;;;;54.85;19.63;;;4.90;99.90;;;;;;4956688;29;20387;-72
2024/01/05 07:00:04;;;;;;;50.40;18.77;;;4.90;99.90;;;;;;4955382;29;20035;-73
2024/01/05 07:02:30;;;;;;;53.47;19.15;;;5.00;99.90;;;;;;4954921;29;20051;-74
2024/01/05 07:04:55;;;;;;;51.65;19.35;;;4.90;99.90;;;;;;4939112;29;20129;-74
2024/01/05 07:07:21;;;;;;;60.60;19.00;;;5.00;99.90;;;;;;4956572;29;20035;-76
2024/01/05 07:09:46;;;;;;;50.60;18.15;;;5.00;99.90;;;;;;4956602;29;20121;-75
2024/01/05 07:12:12;;;;;;;56.47;20.13;;;5.00;99.90;;;;;;4956731;29;20480;-73
2024/01/05 07:14:38;;;;;;;54.55;19.00;;;5.10;99.90;;;;;;4956317;29;20051;-75
2024/01/05 07:17:03;;;;;;;51.33;18.52;;;5.10;99.90;;;;;;4956299;29;20039;-73
2024/01/05 07:19:29;;;;;;;54.70;20.02;;;5.10;99.90;;;;;;4955140;29;20526;-76
2024/01/05 07:21:54;;;;;;;46.65;18.17;;;5.10;99.90;;;;;;4956149;29;20103;-75
2024/01/05 07:24:20;;;;;;;54.88;20.05;;;5.10;99.90;;;;;;4956183;29;20043;-75
2024/01/05 07:26:46;;;;;;;56.95;18.73;;;5.10;99.90;;;;;;4955912;28;20043;-75
2024/01/05 07:29:12;;;;;;;54.47;20.48;;;5.20;99.90;;;;;;4954561;29;20055;-76
2024/01/05 07:31:37;;;;;;;50.60;19.80;;;5.20;99.90;;;;;;4956059;29;20050;-75
2024/01/05 07:34:03;;;;;;;55.88;21.17;;;5.20;99.90;;;;;;4954550;29;20047;-72
2024/01/05 07:36:29;;;;;;;53.47;19.70;;;5.20;99.90;;;;;;4954524;29;20098;-75
2024/01/05 07:38:59;;;;;;;56.38;20.27;;;5.30;99.90;;;;;;4954537;29;20043;-75
2024/01/05 07:41:26;;;;;;;57.08;20.23;;;5.20;99.90;;;;;;4954640;29;20533;-74
2024/01/05 07:43:52;;;;;;;56.42;21.10;;;5.20;99.90;;;;;;4954699;29;20439;-74
2024/01/05 07:46:19;;;;;;;55.05;18.95;;;5.30;99.90;;;;;;4954572;29;20051;-74
2024/01/05 07:48:46;;;;;;;51.75;19.40;;;5.30;99.90;;;;;;4955119;28;20047;-75
2024/01/05 07:51:13;;;;;;;51.15;20.15;;;5.30;99.90;;;;;;4954524;29;20101;-73
2024/01/05 07:53:38;;;;;;;58.97;19.98;;;5.30;99.90;;;;;;4954110;29;20046;-73
2024/01/05 07:56:05;;;;;;;62.35;21.27;;;5.40;99.90;;;;;;4955411;28;20047;-74
2024/01/05 07:58:31;;;;;;;61.17;20.70;;;5.40;99.90;;;;;;4954169;29;20184;-76
2024/01/05 08:00:57;;;;;;;52.13;19.88;;;5.40;99.90;;;;;;4955266;29;20118;-76
2024/01/05 08:03:23;;;;;;;55.53;19.40;;;5.40;99.90;;;;;;4954059;29;20051;-74
2024/01/05 08:05:48;;;;;;;53.65;19.00;;;5.40;99.90;;;;;;4955222;29;20059;-76
2024/01/05 08:08:14;;;;;;;60.45;21.35;;;5.40;99.90;;;;;;4955537;29;20130;-77
2024/01/05 08:10:40;;;;;;;54.38;18.50;;;5.40;99.90;;;;;;4954153;29;20047;-74
2024/01/05 08:13:06;;;;;;;60.13;20.65;;;5.40;99.90;;;;;;4955687;28;20043;-74
2024/01/05 08:15:32;;;;;;;66.60;22.00;;;5.50;99.90;;;;;;4955681;28;20102;-76
2024/01/05 08:17:58;;;;;;;62.83;21.52;;;5.50;99.90;;;;;;4953951;29;20491;-75
2024/01/05 08:20:24;;;;;;;73.40;22.25;;;5.50;99.90;;;;;;4953786;29;20148;-75
2024/01/05 08:22:50;;;;;;;59.47;20.70;;;5.50;99.90;;;;;;4954903;29;20098;-75
2024/01/05 08:25:16;;;;;;;66.90;21.40;;;5.50;99.90;;;;;;4953774;29;20086;-75
2024/01/05 08:27:42;;;;;;;62.05;20.73;;;5.50;99.90;;;;;;4955010;29;20071;-75
2024/01/05 08:30:12;;;;;;;62.95;20.67;;;5.50;99.90;;;;;;4954828;28;20487;-76
2024/01/05 08:32:39;;;;;;;57.03;21.10;;;5.60;99.90;;;;;;4955146;28;20118;-75
2024/01/05 08:35:06;;;;;;;60.05;20.35;;;5.60;99.90;;;;;;4953460;29;20514;-75
2024/01/05 08:37:32;;;;;;;63.70;20.90;;;5.60;99.90;;;;;;4954010;29;20039;-75
2024/01/05 08:39:57;;;;;;;54.28;20.25;;;5.70;99.90;;;;;;4953504;29;20070;-76
2024/01/05 08:42:23;;;;;;;61.78;20.80;;;5.70;99.90;;;;;;4954640;29;20385;-76
2024/01/05 08:44:50;;;;;;;58.05;19.90;;;5.70;99.90;;;;;;4953871;29;20051;-74
2024/01/05 08:47:16;;;;;;;51.63;19.48;;;5.70;99.90;;;;;;4953672;29;20051;-75
2024/01/05 08:49:42;;;;;;;59.90;19.50;;;5.80;99.90;;;;;;4955096;28;20091;-76
2024/01/05 08:52:08;;;;;;;61.33;19.88;;;5.80;99.90;;;;;;4953964;29;20086;-76
2024/01/05 08:54:33;;;;;;;55.88;19.73;;;5.80;99.90;;;;;;4953597;29;20499;-75
2024/01/05 08:56:59;;;;;;;52.50;18.83;;;5.80;99.90;;;;;;4954869;29;20488;-75
2024/01/05 08:59:25;;;;;;;54.47;19.20;;;5.80;99.90;;;;;;4956562;28;20472;-75
2024/01/05 09:01:51;;;;;;;53.00;19.90;;;5.90;99.90;;;;;;4958669;29;20051;-73
2024/01/05 09:04:17;;;;;;;53.08;19.25;;;5.90;99.90;;;;;;4957549;29;20043;-73
2024/01/05 09:06:42;;;;;;;52.30;19.20;;;5.90;99.90;;;;;;4958747;28;20046;-74
2024/01/05 09:09:10;;;;;;;57.72;19.70;;;6.00;99.90;;;;;;4941147;29;20043;-74
2024/01/05 09:11:36;;;;;;;52.70;18.77;;;6.00;99.90;;;;;;4957033;29;20058;-74
2024/01/05 09:14:02;;;;;;;57.03;19.33;;;6.00;99.90;;;;;;4956914;29;20047;-76
2024/01/05 09:16:28;;;;;;;58.67;19.90;;;6.00;99.90;;;;;;4956909;29;20403;-75
2024/01/05 09:18:53;;;;;;;53.30;19.52;;;6.00;99.90;;;;;;4958162;29;20122;-77
2024/01/05 09:21:19;;;;;;;58.00;19.65;;;6.10;99.90;;;;;;4958370;29;20125;-75
2024/01/05 09:23:45;;;;;;;46.90;17.27;;;6.20;99.90;;;;;;4957985;29;20566;-76
2024/01/05 09:26:14;;;;;;;50.80;18.25;;;6.20;99.90;;;;;;4958297;28;20043;-76
2024/01/05 09:28:40;;;;;;;57.20;18.63;;;6.20;99.90;;;;;;4957065;29;20130;-77
2024/01/05 09:31:06;;;;;;;49.28;18.00;;;6.20;99.90;;;;;;4956700;29;20043;-77
2024/01/05 09:33:32;;;;;;;51.08;18.27;;;6.20;99.90;;;;;;4956774;29;20510;-75
2024/01/05 09:35:57;;;;;;;50.97;18.23;;;6.20;99.90;;;;;;4956516;29;20487;-76
2024/01/05 09:38:23;;;;;;;49.10;19.08;;;6.30;99.90;;;;;;4958236;29;20043;-76
2024/01/05 09:40:52;;;;;;;53.05;17.95;;;6.30;99.90;;;;;;4956518;29;20487;-76
2024/01/05 09:43:23;;;;;;;47.88;18.95;;;6.30;99.90;;;;;;4957953;28;20123;-76
2024/01/05 09:45:50;;;;;;;53.72;17.90;;;6.30;99.90;;;;;;4957966;28;20035;-75
2024/01/05 09:48:21;;;;;;;46.70;17.23;;;6.30;99.90;;;;;;4956167;29;20050;-76
2024/01/05 09:50:57;;;;;;;49.80;17.48;;;6.30;99.90;;;;;;4956529;29;20383;-75
2024/01/05 09:53:23;;;;;;;42.78;16.58;;;6.40;99.90;;;;;;4956236;29;20047;-75
2024/01/05 09:55:50;;;;;;;43.83;15.90;;;6.40;99.90;;;;;;4956268;29;20038;-76
2024/01/05 09:58:17;;;;;;;46.88;15.15;;;6.40;99.90;;;;;;4956203;29;20073;-76
2024/01/05 10:00:50;;;;;;;44.53;14.63;;;6.40;99.90;;;;;;4956030;29;20047;-76
2024/01/05 10:03:24;;;;;;;33.60;11.95;;;6.40;99.90;;;;;;4956432;29;20106;-75
2024/01/05 10:05:50;;;;;;;23.10;9.40;;;6.40;99.90;;;;;;4955903;29;20079;-76
2024/01/05 10:08:16;;;;;;;23.00;8.23;;;6.50;99.90;;;;;;4957432;28;20050;-75
2024/01/05 10:10:53;;;;;;;21.95;9.80;;;6.50;99.90;;;;;;4956699;28;20387;-76
2024/01/05 10:13:19;;;;;;;31.35;9.50;;;6.60;99.90;;;;;;4955810;29;20043;-76
2024/01/05 10:15:59;;;;;;;27.30;9.82;;;6.70;99.90;;;;;;4955865;29;20093;-75
2024/01/05 10:18:28;;;;;;;29.83;10.45;;;6.70;99.90;;;;;;4957038;28;20484;-75
2024/01/05 10:20:55;;;;;;;36.85;12.32;;;6.70;99.90;;;;;;4957267;28;20368;-74
2024/01/05 10:23:21;;;;;;;30.63;11.63;;;6.80;99.90;;;;;;4955695;29;20043;-76
2024/01/05 10:25:47;;;;;;;40.13;12.32;;;6.80;99.90;;;;;;4955718;29;20055;-75
2024/01/05 10:28:47;;;;;;;38.47;12.98;;;6.80;99.90;;;;;;4957238;28;20039;-76
2024/01/05 10:31:14;;;;;;;35.80;11.98;;;6.90;99.90;;;;;;4909077;29;20051;-76
2024/01/05 10:33:50;;;;;;;35.30;12.98;;;6.90;99.90;;;;;;4956971;28;20095;-75
2024/01/05 10:36:23;;;;;;;30.35;12.43;;;6.90;99.90;;;;;;4955749;29;20050;-76
2024/01/05 10:38:49;;;;;;;27.42;10.70;;;6.90;99.90;;;;;;4955708;29;20047;-76
2024/01/05 10:41:16;;;;;;;33.83;10.35;;;6.90;99.90;;;;;;4956420;28;20363;-76
2024/01/05 10:43:42;;;;;;;28.98;10.10;;;6.90;99.90;;;;;;4955629;29;20107;-76
2024/01/05 10:46:11;;;;;;;24.80;9.35;;;6.90;99.90;;;;;;4955649;29;20043;-76
2024/01/05 10:48:39;;;;;;;21.15;7.35;;;6.90;99.90;;;;;;4955576;29;20070;-75
2024/01/05 10:51:06;;;;;;;20.13;6.63;;;6.90;99.90;;;;;;4956479;28;20268;-76
2024/01/05 10:53:35;;;;;;;16.55;5.88;;;6.90;99.90;;;;;;4956292;28;20098;-76
2024/01/05 10:56:01;;;;;;;13.27;4.55;;;6.90;99.90;;;;;;4955064;29;20102;-75
2024/01/05 10:58:28;;;;;;;14.20;4.40;;;6.90;99.90;;;;;;4939220;29;20383;-76
2024/01/05 11:01:00;;;;;;;11.02;5.13;;;6.80;99.90;;;;;;4955963;28;20114;-76
2024/01/05 11:03:40;;;;;;;15.25;5.10;;;6.90;99.90;;;;;;4954909;29;20506;-75
2024/01/05 11:06:10;;;;;;;13.77;4.55;;;6.90;99.90;;;;;;4956228;28;20039;-76
2024/01/05 11:08:50;;;;;;;12.73;4.90;;;6.90;99.90;;;;;;4955326;29;20045;-76
2024/01/05 11:11:25;;;;;;;13.32;3.97;;;6.90;99.90;;;;;;4956484;29;20050;-76
2024/01/05 11:14:12;;;;;;;9.43;3.33;;;6.90;99.90;;;;;;4956267;28;20051;-76
2024/01/05 11:16:44;;;;;;;9.73;3.58;;;6.90;99.90;;;;;;4954854;29;20074;-76
2024/01/05 11:19:39;;;;;;;6.93;3.20;;;6.90;99.90;;;;;;4938966;29;20502;-78
2024/01/05 11:22:16;;;;;;;7.80;3.08;;;6.90;99.90;;;;;;4938064;29;20047;-76
2024/01/05 11:24:42;;;;;;;7.80;2.40;;;6.90;99.90;;;;;;4956077;28;20070;-75
2024/01/05 11:27:34;;;;;;;4.95;2.20;;;6.90;99.90;;;;;;4954587;29;20047;-76
2024/01/05 11:30:01;;;;;;;6.28;2.05;;;6.90;99.90;;;;;;4939487;29;20098;-76
2024/01/05 11:32:42;;;;;;;5.88;1.88;;;7.00;99.90;;;;;;4954450;29;20039;-76
2024/01/05 11:35:17;;;;;;;3.38;0.98;;;6.90;99.90;;;;;;4955586;28;20089;-77
2024/01/05 11:37:47;;;;;;;2.08;0.85;;;6.90;99.90;;;;;;4954796;29;20478;-77
2024/01/05 11:40:25;;;;;;;5.50;1.55;;;6.80;99.90;;;;;;4956360;28;20062;-76
2024/01/05 11:42:51;;;;;;;3.17;1.15;;;6.80;99.90;;;;;;4955870;29;20168;-77
2024/01/05 11:45:52;;;;;;;3.10;1.38;;;6.80;99.90;;;;;;4954573;29;20039;-77
2024/01/05 11:48:33;;;;;;;3.83;1.40;;;6.80;99.90;;;;;;4955712;28;20122;-76
2024/01/05 11:51:02;;;;;;;4.85;1.60;;;6.80;99.90;;;;;;4954052;29;20053;-79
2024/01/05 11:53:28;;;;;;;4.50;1.40;;;6.70;99.90;;;;;;4954452;29;20049;-78
2024/01/05 11:56:03;;;;;;;5.13;1.73;;;6.70;99.90;;;;;;4955447;28;20051;-76
2024/01/05 11:58:33;;;;;;;5.95;1.80;;;6.70;99.90;;;;;;4955823;28;20394;-77
2024/01/05 12:01:04;;;;;;;3.33;1.60;;;6.70;99.90;;;;;;4955476;29;20125;-76
2024/01/05 12:03:30;;;;;;;5.82;1.48;;;6.70;99.90;;;;;;4954184;29;20049;-77
2024/01/05 12:06:00;;;;;;;4.38;1.40;;;6.70;99.90;;;;;;4955589;28;20031;-78
2024/01/05 12:08:27;;;;;;;5.78;1.33;;;6.70;99.90;;;;;;4956029;28;20043;-78
2024/01/05 12:10:56;;;;;;;2.97;1.40;;;6.70;99.90;;;;;;4955048;28;20425;-78
2024/01/05 12:13:24;;;;;;;2.55;1.10;;;6.70;99.90;;;;;;4955130;28;20039;-78
2024/01/05 12:15:54;;;;;;;3.20;1.20;;;6.60;99.90;;;;;;4954536;29;20058;-78
2024/01/05 12:18:26;;;;;;;4.07;1.20;;;6.60;99.90;;;;;;4955247;29;20035;-77
2024/01/05 12:20:57;;;;;;;2.97;1.40;;;6.70;99.90;;;;;;4955091;28;20507;-77
2024/01/05 12:23:23;;;;;;;3.33;1.13;;;6.70;99.90;;;;;;4954192;29;20047;-77
2024/01/05 12:26:03;;;;;;;3.95;1.40;;;6.70;99.90;;;;;;4955876;28;20439;-77
2024/01/05 12:28:37;;;;;;;2.10;1.10;;;6.70;99.90;;;;;;4954029;29;20047;-76
2024/01/05 12:31:04;;;;;;;2.30;1.40;;;6.70;99.90;;;;;;4955290;28;20047;-76
2024/01/05 12:33:32;;;;;;;2.30;1.05;;;6.70;99.90;;;;;;4955698;28;20046;-77
2024/01/05 12:35:58;;;;;;;2.53;1.25;;;6.70;99.90;;;;;;4957754;29;20043;-77
2024/01/05 12:38:31;;;;;;;2.13;1.10;;;6.70;99.90;;;;;;4957743;29;20050;-77
2024/01/05 12:41:10;;;;;;;1.70;0.95;;;6.70;99.90;;;;;;4958861;28;20038;-77
2024/01/05 12:43:37;;;;;;;2.50;1.00;;;6.70;99.90;;;;;;4957598;29;20047;-77
2024/01/05 12:46:06;;;;;;;1.75;0.93;;;6.70;99.90;;;;;;4958920;28;20075;-77
2024/01/05 12:48:32;;;;;;;2.40;1.00;;;6.70;99.90;;;;;;4958703;28;20487;-76
2024/01/05 12:51:08;;;;;;;2.10;0.90;;;6.70;99.90;;;;;;4959461;28;20122;-78
2024/01/05 12:53:35;;;;;;;2.00;0.90;;;6.70;99.90;;;;;;4957325;29;20134;-76
2024/01/05 12:56:20;;;;;;;3.58;0.90;;;6.60;99.90;;;;;;4958831;28;20113;-76
2024/01/05 12:58:46;;;;;;;1.63;0.63;;;6.60;99.90;;;;;;4957345;29;20046;-76
2024/01/05 13:01:19;;;;;;;1.50;0.70;;;6.60;99.90;;;;;;4957029;29;20039;-76
2024/01/05 13:03:53;;;;;;;1.55;0.50;;;6.50;99.90;;;;;;4958639;28;20043;-76
2024/01/05 13:06:21;;;;;;;1.00;0.52;;;6.50;99.90;;;;;;4957692;29;20118;-78
2024/01/05 13:08:48;;;;;;;2.80;0.73;;;6.50;99.90;;;;;;4958684;28;20118;-75
2024/01/05 13:11:14;;;;;;;1.67;0.73;;;6.50;99.90;;;;;;4956984;29;20058;-77
2024/01/05 13:13:40;;;;;;;4.18;0.95;;;6.40;99.90;;;;;;4958282;28;20039;-76
2024/01/05 13:16:07;;;;;;;1.27;0.60;;;6.40;99.90;;;;;;4957083;29;20117;-76
2024/01/05 13:18:32;;;;;;;1.27;0.65;;;6.40;99.90;;;;;;4941111;29;20043;-76
2024/01/05 13:20:58;;;;;;;1.38;0.70;;;6.40;99.90;;;;;;4958359;28;20043;-75
2024/01/05 13:23:24;;;;;;;1.60;0.70;;;6.40;99.90;;;;;;4958509;28;20049;-77
2024/01/05 13:25:51;;;;;;;1.40;0.70;;;6.40;99.90;;;;;;4958515;28;20380;-75
2024/01/05 13:28:17;;;;;;;2.47;0.90;;;6.40;99.90;;;;;;4958380;28;20054;-77
2024/01/05 13:30:43;;;;;;;2.88;1.10;;;6.40;99.90;;;;;;4958050;28;20082;-76
2024/01/05 13:33:08;;;;;;;2.65;1.10;;;6.40;99.90;;;;;;4956767;29;20075;-76
2024/01/05 13:35:34;;;;;;;3.00;1.40;;;6.40;99.90;;;;;;4956661;29;20169;-76
2024/01/05 13:38:00;;;;;;;3.42;1.40;;;6.40;99.90;;;;;;4957896;28;20043;-76
2024/01/05 13:40:26;;;;;;;2.80;1.50;;;6.40;99.90;;;;;;4957778;28;20042;-76
2024/01/05 13:42:52;;;;;;;2.88;1.50;;;6.40;99.90;;;;;;4958337;28;20039;-76
2024/01/05 13:45:18;;;;;;;2.97;1.65;;;6.40;99.90;;;;;;4957518;28;20042;-76
2024/01/05 13:47:43;;;;;;;3.60;1.60;;;6.50;99.90;;;;;;4957928;29;20058;-76
2024/01/05 13:50:10;;;;;;;4.28;1.60;;;6.40;99.90;;;;;;4956596;29;20082;-77
2024/01/05 13:52:35;;;;;;;5.47;1.60;;;6.50;99.90;;;;;;4956618;29;20106;-77
2024/01/05 13:55:01;;;;;;;3.22;1.60;;;6.50;99.90;;;;;;4956072;29;20047;-77
2024/01/05 13:57:27;;;;;;;3.67;1.92;;;6.50;99.90;;;;;;4956342;29;20066;-77
2024/01/05 13:59:53;;;;;;;2.92;1.95;;;6.50;99.90;;;;;;4956253;29;20047;-77
2024/01/05 14:02:19;;;;;;;2.95;1.70;;;6.50;99.90;;;;;;4956069;29;20039;-76
2024/01/05 14:04:48;;;;;;;4.10;1.90;;;6.50;99.90;;;;;;4956300;29;20167;-75
2024/01/05 14:07:14;;;;;;;3.40;1.92;;;6.50;99.90;;;;;;4957544;28;20039;-76
2024/01/05 14:09:41;;;;;;;4.35;1.95;;;6.50;99.90;;;;;;4956395;29;20047;-76
2024/01/05 14:12:08;;;;;;;3.70;1.73;;;6.50;99.90;;;;;;4957415;28;20047;-76
2024/01/05 14:14:33;;;;;;;3.00;1.50;;;6.50;99.90;;;;;;4956024;29;20051;-77
2024/01/05 14:16:59;;;;;;;2.88;1.67;;;6.60;99.90;;;;;;4956045;29;20043;-77
2024/01/05 14:19:25;;;;;;;4.25;2.03;;;6.60;99.90;;;;;;4955888;29;20134;-77
2024/01/05 14:21:51;;;;;;;4.78;1.90;;;6.50;99.90;;;;;;4956997;29;20114;-77
2024/01/05 14:24:17;;;;;;;4.90;2.00;;;6.50;99.90;;;;;;4955859;29;20079;-77
2024/01/05 14:26:47;;;;;;;5.90;2.10;;;6.60;99.90;;;;;;4957270;29;20047;-76
2024/01/05 14:29:15;;;;;;;7.25;2.42;;;6.60;99.90;;;;;;4955665;29;20043;-75
2024/01/05 14:31:41;;;;;;;3.90;2.20;;;6.60;99.90;;;;;;4957154;28;20085;-77
2024/01/05 14:34:07;;;;;;;5.43;2.85;;;6.60;99.90;;;;;;4956919;28;20468;-76
2024/01/05 14:36:33;;;;;;;5.45;2.30;;;6.60;99.90;;;;;;4956834;29;20075;-77
2024/01/05 14:38:59;;;;;;;5.28;2.40;;;6.50;99.90;;;;;;4955609;29;20047;-78
2024/01/05 14:41:25;;;;;;;4.55;2.30;;;6.60;99.90;;;;;;4955463;29;20086;-76
2024/01/05 14:43:51;;;;;;;5.18;2.28;;;6.60;99.90;;;;;;4955408;29;20475;-77
2024/01/05 14:46:16;;;;;;;7.85;2.17;;;6.60;99.90;;;;;;4956905;28;20039;-76
2024/01/05 14:48:43;;;;;;;5.65;2.05;;;6.60;99.90;;;;;;4955176;29;20114;-77
2024/01/05 14:51:09;;;;;;;4.10;2.10;;;6.60;99.90;;;;;;4956796;28;20122;-77
2024/01/05 14:53:36;;;;;;;4.68;2.22;;;6.60;99.90;;;;;;4939179;29;20130;-76
2024/01/05 14:56:02;;;;;;;6.07;2.67;;;6.50;99.90;;;;;;4955850;29;20376;-77
2024/01/05 14:58:28;;;;;;;3.70;2.15;;;6.60;99.90;;;;;;4956672;28;20114;-77
2024/01/05 15:00:54;;;;;;;4.95;2.40;;;6.60;99.90;;;;;;4956543;29;20492;-77
2024/01/05 15:03:21;;;;;;;4.82;2.28;;;6.60;99.90;;;;;;4955474;29;20412;-77
2024/01/05 15:05:47;;;;;;;4.45;1.95;;;6.60;99.90;;;;;;4954848;29;20118;-76
2024/01/05 15:08:14;;;;;;;3.88;2.25;;;6.60;99.90;;;;;;4956460;29;20406;-77
2024/01/05 15:10:40;;;;;;;5.88;2.15;;;6.60;99.90;;;;;;4956071;28;20352;-76
2024/01/05 15:13:06;;;;;;;4.25;2.33;;;6.50;99.90;;;;;;4956288;28;20075;-77
2024/01/05 15:15:32;;;;;;;5.18;2.10;;;6.50;99.90;;;;;;4954718;29;20083;-77
2024/01/05 15:17:58;;;;;;;4.22;1.70;;;6.50;99.90;;;;;;4954779;29;20147;-77
2024/01/05 15:20:25;;;;;;;4.75;1.60;;;6.50;99.90;;;;;;4954535;29;20591;-76
2024/01/05 15:22:51;;;;;;;3.83;1.42;;;6.50;99.90;;;;;;4956220;28;20037;-75
2024/01/05 15:25:20;;;;;;;4.50;1.60;;;6.40;99.90;;;;;;4954690;29;20110;-77
2024/01/05 15:27:46;;;;;;;3.80;2.00;;;6.40;99.90;;;;;;4956209;28;20479;-77
2024/01/05 15:30:12;;;;;;;4.05;1.88;;;6.40;99.90;;;;;;4954491;29;20078;-76
2024/01/05 15:32:38;;;;;;;6.10;2.75;;;6.40;99.90;;;;;;4954498;29;20047;-76
2024/01/05 15:35:05;;;;;;;6.00;3.50;;;6.30;99.90;;;;;;4947637;29;20213;-76
2024/01/05 15:37:31;;;;;;;6.05;3.47;;;6.30;99.90;;;;;;4937081;29;20107;-75
2024/01/05 15:39:57;;;;;;;6.35;3.83;;;6.30;99.90;;;;;;4935135;29;20399;-77
2024/01/05 15:42:22;;;;;;;7.60;4.20;;;6.40;99.90;;;;;;4936726;29;20071;-75
2024/01/05 15:44:48;;;;;;;7.00;3.30;;;6.30;99.90;;;;;;4936500;29;20044;-76
2024/01/05 15:47:16;;;;;;;6.68;2.95;;;6.30;99.90;;;;;;4935480;29;20078;-76
2024/01/05 15:49:42;;;;;;;5.68;3.20;;;6.30;99.90;;;;;;4936218;29;20055;-77
2024/01/05 15:52:07;;;;;;;6.75;3.47;;;6.30;99.90;;;;;;4935424;29;20036;-76
2024/01/05 15:54:33;;;;;;;8.80;4.20;;;6.30;99.90;;;;;;4936228;29;20046;-77
2024/01/05 15:56:59;;;;;;;7.90;4.07;;;6.30;99.90;;;;;;4934946;29;20480;-78
2024/01/05 15:59:29;;;;;;;6.78;3.75;;;6.30;99.90;;;;;;4919058;29;20047;-75
2024/01/05 16:01:56;;;;;;;7.47;3.80;;;6.20;99.90;;;;;;4935031;29;20432;-76
2024/01/05 16:04:22;;;;;;;8.10;3.58;;;6.20;99.90;;;;;;4936643;29;20053;-75
2024/01/05 16:06:47;;;;;;;11.18;4.22;;;6.20;99.90;;;;;;4934901;29;20458;-76
2024/01/05 16:09:14;;;;;;;6.47;3.20;;;6.20;99.90;;;;;;4934752;29;20130;-75
2024/01/05 16:11:40;;;;;;;7.38;3.83;;;6.20;99.90;;;;;;4934815;29;20079;-75
2024/01/05 16:14:06;;;;;;;10.27;4.43;;;6.20;99.90;;;;;;4934808;29;20044;-75
2024/01/05 16:16:32;;;;;;;9.98;4.22;;;6.20;99.90;;;;;;4934609;29;20075;-76
2024/01/05 16:19:00;;;;;;;11.65;4.95;;;6.10;99.90;;;;;;4934810;29;20126;-76
2024/01/05 16:21:26;;;;;;;16.05;6.45;;;6.10;99.90;;;;;;4935907;29;20040;-76
2024/01/05 16:23:54;;;;;;;19.05;6.82;;;6.10;99.90;;;;;;4936006;29;20062;-77
2024/01/05 16:26:21;;;;;;;19.13;7.80;;;6.10;99.90;;;;;;4936196;29;20059;-75
2024/01/05 16:28:47;;;;;;;22.15;8.23;;;6.10;99.90;;;;;;4935734;29;20063;-77
2024/01/05 16:31:13;;;;;;;22.17;10.02;;;6.10;99.90;;;;;;4935911;29;20140;-75
2024/01/05 16:33:39;;;;;;;25.33;10.15;;;6.00;99.90;;;;;;4934714;29;20079;-75
2024/01/05 16:36:06;;;;;;;28.85;11.35;;;6.00;99.90;;;;;;4934679;29;20074;-75
2024/01/05 16:38:32;;;;;;;32.92;12.90;;;6.00;99.90;;;;;;4934635;29;20144;-76
2024/01/05 16:40:58;;;;;;;31.08;13.20;;;6.00;99.90;;;;;;4934751;29;20070;-77
2024/01/05 16:43:24;;;;;;;39.78;14.50;;;6.00;99.90;;;;;;4934605;29;20500;-76
2024/01/05 16:45:49;;;;;;;37.42;14.45;;;6.00;99.90;;;;;;4936090;29;20051;-75
2024/01/05 16:48:18;;;;;;;36.60;14.50;;;6.00;99.90;;;;;;4936042;29;20144;-77